Hastings Natural History Reservation, California Weather observations

Data are for 10 minute period ending at time listed.
 Day   Time   Solar   Ave.   Ave.  Ave.  Vector  Max.   Baro.   Total    
  of    of     Rad.   Air    Rel.  Wind   Wind   Wind  Press.  Precip.   
Year   Day            Temp.  Hum.  Speed  Dir.   Gust                    
2016   (PST)  Kw/m2    F      %     mph   deg.    mph    mb.     in.     
-------------------------------------------------------------------------
 176    6:40   0.22   57.8    45    0.0    15     0.4   955.0    0.00 
 176    6:50   0.26   61.8    38    0.8    66     1.5   955.0    0.00 
 176    7:00   0.29   64.1    35    0.3    78     1.2   955.1    0.00 
 176    7:10   0.32   66.3    33    0.6   132     2.5   955.1    0.00 
 176    7:20   0.35   69.0    32    1.0   236     3.7   955.1    0.00 
 176    7:30   0.38   71.8    30    0.7   231     3.1   955.0    0.00 
 176    7:40   0.41   73.8    27    1.2   255     4.6   954.9    0.00 
 176    7:50   0.44   72.6    25    2.6   249     5.8   954.8    0.00 
 176    8:00   0.47   73.2    21    3.1   246     7.0   954.8    0.00 
 176    8:10   0.50   73.5    20    3.1   259     9.9   954.8    0.00 
 176    8:20   0.53   74.0    18    4.9   245     9.6   954.7    0.00 
 176    8:30   0.56   73.5    16    5.8   244    10.3   954.7    0.00 
 176    8:40   0.59   75.0    14    3.9   262     8.3   954.7    0.00 
 176    8:50   0.62   75.2    12    4.8   240     9.9   954.7    0.00 
 176    9:00   0.64   75.7    13    3.6   246     8.6   954.8    0.00 
 176    9:10   0.67   77.4    13    4.2   252     8.3   954.8    0.00 
 176    9:20   0.69   76.6    14    4.3   251     8.9   954.8    0.00 
 176    9:30   0.72   76.4    14    4.4   248     9.6   954.9    0.00 
 176    9:40   0.74   76.4    14    2.4   251     5.9   954.9    0.00 
 176    9:50   0.78   78.3    15    4.7   255    11.1   954.9    0.00 
 176   10:00   0.81   76.6    17    4.9   240    10.4   955.0    0.00 
 176   10:10   0.82   77.3    18    3.3   248     7.9   955.0    0.00 
 176   10:20   0.84   77.7    18    3.9   244     8.0   955.0    0.00 
 176   10:30   0.86   79.0    17    3.3   275     8.1   955.1    0.00 
 176   10:40   0.88   78.5    17    4.4   250     8.4   955.1    0.00 
 176   10:50   0.85   79.1    15    3.0   263    10.0   955.1    0.00 
 176   11:00   0.91   80.9     9    3.8   251    10.6   955.1    0.00 
 176   11:10   0.92   79.9     7    4.6   249    10.4   955.1    0.00 
 176   11:20   0.93   80.9     7    4.1   256    10.9   955.1    0.00 
 176   11:30   0.94   81.1     9    2.9   251     9.6   955.2    0.00 
 176   11:40   0.94   81.6    13    3.4   265    12.7   955.1    0.00 
 176   11:50   0.95   82.9    13    3.8   262    10.1   955.1    0.00 
 176   12:00   0.96   82.1    13    4.2   327    10.4   955.1    0.00 
 176   12:10   0.96   83.0    11    3.3   258     8.9   955.0    0.00 
 176   12:20   0.96   82.5     9    5.9   239    12.1   954.9    0.00 
 176   12:30   0.96   82.6     9    4.2   255    10.3   954.8    0.00 
 176   12:40   0.96   83.7     8    4.5   251    12.9   954.8    0.00 
 176   12:50   0.96   84.1     8    4.8   254    11.2   954.8    0.00 
 176   13:00   0.96   83.9     9    5.0   251    11.3   954.8    0.00 
 176   13:10   0.95   84.8     9    3.5   260    11.1   954.7    0.00 
 176   13:20   0.94   83.6     9    5.6   247    12.4   954.7    0.00 
 176   13:30   0.93   84.4     9    5.5   244    14.8   954.6    0.00 
 176   13:40   0.93   85.6    10    3.4   280    12.2   954.6    0.00 
 176   13:50   0.92   86.0    10    4.5   250    11.1   954.5    0.00 
 176   14:00   0.91   84.7    10    5.1   252    12.7   954.5    0.00 
 176   14:10   0.89   86.2    10    2.8   322    10.7   954.4    0.00 
 176   14:20   0.88   84.9    11    5.1   247    10.4   954.4    0.00 
 176   14:30   0.86   84.0    12    5.4   250    13.6   954.4    0.00 
 176   14:40   0.84   82.8    13    6.7   248    15.0   954.4    0.00 
 176   14:50   0.82   83.2    13    4.8   254    11.2   954.3    0.00 
 176   15:00   0.80   82.7    15    5.5   251    10.2   954.2    0.00 
 176   15:10   0.78   82.6    16    5.4   243    14.5   954.2    0.00 
 176   15:20   0.76   83.3    16    4.4   249     9.4   954.2    0.00 
 176   15:30   0.73   83.5    17    4.0   251    10.0   954.1    0.00 
 176   15:40   0.71   83.5    18    2.6   319     9.7   954.1    0.00 
 176   15:50   0.68   83.5    19    2.6   300     9.1   954.0    0.00 
 176   16:00   0.65   84.2    19    2.7   320     8.3   954.0    0.00 
 176   16:10   0.62   82.8    21    3.0   268     9.1   953.9    0.00 
 176   16:20   0.59   83.3    21    1.6   338     7.2   953.9    0.00 
 176   16:30   0.56   83.4    21    2.8   276    11.1   953.7    0.00 
 176   16:40   0.53   80.6    22    3.8   258     9.7   953.6    0.00 
 176   16:50   0.50   80.9    22    3.4   274    10.4   953.5    0.00 
 176   17:00   0.47   79.5    24    4.8   246    10.1   953.4    0.00 
 176   17:10   0.44   78.7    25    3.8   256     9.5   953.4    0.00 
 176   17:20   0.41   77.3    24    5.2   250    10.3   953.3    0.00 
 176   17:30   0.37   77.6    23    2.0   320     6.9   953.3    0.00 
 176   17:40   0.34   77.7    23    3.8   257     9.2   953.2    0.00 
 176   17:50   0.31   76.3    24    3.7   250     9.1   953.2    0.00 
 176   18:00   0.27   75.1    26    3.3   252     8.4   953.0    0.00 
 176   18:10   0.21   73.6    27    5.0   246     9.8   953.0    0.00 
 176   18:20   0.19   72.6    28    1.8   255     5.9   952.9    0.00 
 176   18:30   0.03   72.2    28    2.7   247     6.4   952.9    0.00 
 176   18:40   0.02   71.5    29    2.6   251     5.8   952.9    0.00 
 176   18:50   0.01   70.6    31    2.8   249     5.3   952.9    0.00 
 176   19:00   0.01   69.8    32    2.7   239     5.8   952.9    0.00 
 176   19:10   0.01   69.0    34    1.2   240     3.8   953.0    0.00 
 176   19:20   0.00   67.9    35    2.0   237     4.0   953.1    0.00 
 176   19:30   0.00   66.8    37    1.2   233     4.0   953.2    0.00 
 176   19:40   0.00   65.0    39    1.2    46     2.3   953.3    0.00 
 176   19:50   0.00   62.7    40    0.7    46     2.1   953.3    0.00 
 176   20:00   0.00   61.6    41    1.3    52     2.6   953.3    0.00 
 176   20:10   0.00   60.5    42    0.7    52     1.5   953.4    0.00 
 176   20:20   0.00   59.7    43    0.1    60     1.2   953.5    0.00 
 176   20:30   0.00   58.9    44    1.0    52     2.4   953.6    0.00 
 176   20:40   0.00   58.2    44    0.6    31     2.6   953.6    0.00 
 176   20:50   0.00   57.5    45    0.7   251     2.5   953.5    0.00 
 176   21:00   0.00   56.9    46    1.3   256     2.8   953.6    0.00 
 176   21:10   0.00   56.4    47    0.6   207     1.6   953.6    0.00 
 176   21:20   0.00   56.0    47    0.9   225     2.6   953.7    0.00 
 176   21:30   0.00   55.9    47    0.4    50     1.8   953.7    0.00 
 176   21:40   0.00   55.4    46    0.5   244     1.7   953.7    0.00 
 176   21:50   0.00   54.7    47    0.2   272     1.2   953.6    0.00 
 176   22:00   0.00   54.2    48    0.2   238     1.7   953.5    0.00 
 176   22:10   0.00   54.0    49    0.6    47     1.7   953.5    0.00 
 176   22:20   0.00   54.0    50    0.2    47     1.3   953.5    0.00 
 176   22:30   0.00   53.9    50    0.8    53     2.3   953.5    0.00 
 176   22:40   0.00   53.9    51    1.0    55     1.8   953.5    0.00 
 176   22:50   0.00   54.0    52    0.3    75     1.2   953.5    0.00 
 176   23:00   0.00   53.8    52    0.1    77     1.2   953.5    0.00 
 176   23:10   0.00   53.4    53    0.3    64     1.2   953.5    0.00 
 176   23:20   0.00   53.1    54    0.1    49     0.8   953.4    0.00 
 176   23:30   0.00   52.9    54    0.6    63     2.0   953.4    0.00 
 176   23:40   0.00   53.0    54    0.5    46     1.3   953.4    0.00 
 176   23:50   0.00   52.9    54    0.1    35     0.9   953.4    0.00 
 177    0:00   0.00   52.4    55    0.4    60     1.0   953.3    0.00 
 177    0:10   0.00   52.3    56    0.8    58     1.4   953.2    0.00 
 177    0:20   0.00   52.4    57    0.2    47     1.2   953.0    0.00 
 177    0:30   0.00   52.1    57    0.2    44     1.3   953.0    0.00 
 177    0:40   0.00   51.8    59    0.1    63     0.8   953.0    0.00 
 177    0:50   0.00   51.6    60    0.1    51     0.8   953.0    0.00 
 177    1:00   0.00   51.5    60    0.6    77     3.1   953.0    0.00 
 177    1:10   0.00   51.4    59    0.6   186     2.6   953.0    0.00 
 177    1:20   0.00   50.7    59    1.2   232     4.6   953.0    0.00 
 177    1:30   0.00   50.4    60    0.4   242     1.5   953.0    0.00 
 177    1:40   0.00   50.6    60    0.7   254     1.9   952.9    0.00 
 177    1:50   0.00   50.6    61    0.5   244     2.0   952.9    0.00 
 177    2:00   0.00   50.5    62    0.1    29     0.8   952.9    0.00 
 177    2:10   0.00   50.6    62    0.1   235     1.1   952.8    0.00 
 177    2:20   0.00   50.5    62    0.8   239     2.8   952.7    0.00 
 177    2:30   0.00   50.4    63    0.6   158     2.0   952.6    0.00 
 177    2:40   0.00   50.4    63    0.5   119     3.1   952.6    0.00 
 177    2:50   0.00   50.3    63    1.2   108     4.7   952.6    0.00 
 177    3:00   0.00   51.0    61    1.0   106     2.9   952.5    0.00 
 177    3:10   0.00   50.6    62    1.3   117     4.5   952.5    0.00 
 177    3:20   0.00   50.8    62    1.2    85     3.8   952.5    0.00 
 177    3:30   0.00   50.9    62    1.0    80     4.2   952.4    0.00 
 177    3:40   0.00   50.9    63    0.5   101     3.7   952.4    0.00 
 177    3:50   0.00   50.9    63    0.5    84     3.3   952.4    0.00 
 177    4:00   0.00   51.2    63    1.3    95     2.8   952.4    0.00 
 177    4:10   0.00   50.9    63    0.4   231     2.0   952.4    0.00 
 177    4:20   0.00   51.2    63    0.6    68     4.7   952.4    0.00 
 177    4:30   0.00   51.2    63    0.1   108     1.1   952.4    0.00 
 177    4:40   0.00   51.1    64    0.8    78     3.0   952.4    0.00 
 177    4:50   0.00   51.2    64    0.6    65     2.1   952.4    0.00 
 177    5:00   0.00   51.4    64    1.1    65     3.3   952.4    0.00 
 177    5:10   0.00   51.5    64    0.5    54     2.9   952.4    0.00 
 177    5:20   0.00   51.7    64    0.3   180     1.6   952.4    0.00 
 177    5:30   0.00   51.9    64    0.8   240     2.2   952.5    0.00 
 177    5:40   0.01   52.2    65    0.6   240     2.5   952.7    0.00 
 177    5:50   0.01   52.8    64    0.0    53     0.6   952.7    0.00 
 177    6:00   0.01   53.3    63    0.1    50     1.2   952.8    0.00 
 177    6:10   0.01   54.0    63    0.1    99     2.2   952.7    0.00 
 177    6:20   0.02   55.3    61    0.3   225     1.6   952.7    0.00 
 177    6:30   0.17   56.8    59    0.3   238     1.5   952.6    0.00 

Return to Hastings Natural History Reservation graphs page.


Western Regional Climate Center,wrcc@dri.edu